Time;durP1;ratioP1;P1;durP2;ratioP2;P2;SDS_P1;SDS_P2;PMS_P1;PMS_P2;Temp;Humidity;BMP_temperature;BMP_pressure;BME280_temperature;BME280_humidity;BME280_pressure;Samples;Min_cycle;Max_cycle;Signal;HPM_P1;HPM_P2
2024/01/25 00:02:03;;;;;;;;;;;19.60;54.50;;;;;;5034327;28;19936;-69
2024/01/25 00:04:29;;;;;;;;;;;19.60;54.50;;;;;;5034788;28;19925;-69
2024/01/25 00:06:54;;;;;;;;;;;19.60;54.40;;;;;;5017368;28;19983;-68
2024/01/25 00:09:20;;;;;;;;;;;19.60;54.40;;;;;;5017564;28;20349;-68
2024/01/25 00:11:45;;;;;;;;;;;19.60;54.40;;;;;;5034418;28;19926;-68
2024/01/25 00:14:11;;;;;;;;;;;19.60;54.40;;;;;;5007681;28;19976;-68
2024/01/25 00:16:40;;;;;;;;;;;19.60;54.40;;;;;;4997911;28;19925;-68
2024/01/25 00:19:05;;;;;;;;;;;19.60;54.40;;;;;;4996875;28;19926;-68
2024/01/25 00:21:31;;;;;;;;;;;19.50;54.30;;;;;;4997609;28;19926;-68
2024/01/25 00:23:56;;;;;;;;;;;19.60;54.40;;;;;;5014224;28;20471;-68
2024/01/25 00:26:22;;;;;;;;;;;19.50;54.30;;;;;;5014354;28;19926;-68
2024/01/25 00:28:47;;;;;;;;;;;19.50;54.30;;;;;;4997108;28;20385;-68
2024/01/25 00:31:13;;;;;;;;;;;19.50;54.30;;;;;;5012252;28;19925;-68
2024/01/25 00:33:38;;;;;;;;;;;19.50;54.30;;;;;;5017293;28;19933;-68
2024/01/25 00:36:04;;;;;;;;;;;19.50;54.30;;;;;;5016589;28;19925;-68
2024/01/25 00:38:30;;;;;;;;;;;19.50;54.30;;;;;;5016326;28;19925;-68
2024/01/25 00:40:55;;;;;;;;;;;19.50;54.30;;;;;;5016608;28;20277;-68
2024/01/25 00:43:21;;;;;;;;;;;19.40;54.20;;;;;;5016984;28;19925;-68
2024/01/25 00:45:46;;;;;;;;;;;19.50;54.30;;;;;;5016538;28;20434;-68
2024/01/25 00:48:12;;;;;;;;;;;19.50;54.30;;;;;;5016487;28;19929;-68
2024/01/25 00:50:38;;;;;;;;;;;19.50;54.30;;;;;;5016843;28;19929;-68
2024/01/25 00:53:03;;;;;;;;;;;19.50;54.30;;;;;;5046256;28;20012;-68
2024/01/25 00:55:29;;;;;;;;;;;19.50;54.20;;;;;;5036869;28;19929;-68
2024/01/25 00:57:55;;;;;;;;;;;19.40;54.20;;;;;;5034227;28;20388;-68
2024/01/25 01:00:20;;;;;;;;;;;19.40;54.20;;;;;;5015936;28;20020;-68
2024/01/25 01:02:46;;;;;;;;;;;19.40;54.20;;;;;;5016404;28;19932;-68
2024/01/25 01:05:12;;;;;;;;;;;19.40;54.20;;;;;;5016156;28;19968;-68
2024/01/25 01:07:41;;;;;;;;;;;19.40;54.20;;;;;;5015793;28;19932;-68
2024/01/25 01:10:07;;;;;;;;;;;19.40;54.10;;;;;;5015884;28;19925;-68
2024/01/25 01:12:33;;;;;;;;;;;19.40;54.10;;;;;;5033895;28;20008;-68
2024/01/25 01:14:58;;;;;;;;;;;19.40;54.10;;;;;;5014995;28;20023;-68
2024/01/25 01:17:24;;;;;;;;;;;19.30;54.10;;;;;;5016411;28;19925;-68
2024/01/25 01:19:49;;;;;;;;;;;19.40;54.10;;;;;;5016051;28;19972;-68
2024/01/25 01:22:14;;;;;;;;;;;19.40;54.10;;;;;;5015015;28;19932;-68
2024/01/25 01:24:40;;;;;;;;;;;19.30;54.00;;;;;;5015932;28;19932;-68
2024/01/25 01:27:05;;;;;;;;;;;19.30;54.00;;;;;;5015098;28;19994;-68
2024/01/25 01:29:31;;;;;;;;;;;19.30;54.00;;;;;;5015720;28;19925;-68
2024/01/25 01:31:56;;;;;;;;;;;19.30;54.00;;;;;;5033451;28;19972;-68
2024/01/25 01:34:22;;;;;;;;;;;19.30;54.00;;;;;;5015510;28;19921;-68
2024/01/25 01:36:47;;;;;;;;;;;19.30;54.00;;;;;;5016189;28;20016;-68
2024/01/25 01:39:13;;;;;;;;;;;19.30;54.00;;;;;;5033089;28;20426;-68
2024/01/25 01:41:38;;;;;;;;;;;19.30;54.00;;;;;;5014577;28;20357;-68
2024/01/25 01:44:04;;;;;;;;;;;19.30;54.00;;;;;;5015792;28;20019;-68
2024/01/25 01:46:37;;;;;;;;;;;19.30;54.00;;;;;;5033597;28;20279;-68
2024/01/25 01:49:12;;;;;;;;;;;19.30;54.00;;;;;;5014630;28;19925;-68
2024/01/25 01:51:38;;;;;;;;;;;19.20;53.90;;;;;;5015931;28;19925;-68
2024/01/25 01:54:05;;;;;;;;;;;19.20;54.00;;;;;;4999066;28;20266;-68
2024/01/25 01:56:31;;;;;;;;;;;19.20;54.00;;;;;;5014837;28;19971;-68
2024/01/25 01:59:00;;;;;;;;;;;19.20;53.90;;;;;;5015550;28;19929;-68
2024/01/25 02:01:25;;;;;;;;;;;19.20;53.90;;;;;;5031726;28;19971;-68
2024/01/25 02:03:51;;;;;;;;;;;19.20;53.90;;;;;;5003291;28;19926;-68
2024/01/25 02:06:17;;;;;;;;;;;19.20;54.00;;;;;;5018550;28;19995;-68
2024/01/25 02:08:42;;;;;;;;;;;19.20;53.90;;;;;;4998954;28;20044;-68
2024/01/25 02:11:08;;;;;;;;;;;19.10;53.90;;;;;;4998296;28;19929;-68
2024/01/25 02:13:34;;;;;;;;;;;19.20;53.90;;;;;;5033189;28;19925;-68
2024/01/25 02:16:00;;;;;;;;;;;19.10;53.90;;;;;;5032764;28;19925;-68
2024/01/25 02:18:25;;;;;;;;;;;19.10;53.80;;;;;;5032295;28;19929;-68
2024/01/25 02:20:51;;;;;;;;;;;19.10;53.80;;;;;;5015374;28;19979;-68
2024/01/25 02:23:16;;;;;;;;;;;19.10;54.10;;;;;;5015370;28;20293;-68
2024/01/25 02:25:42;;;;;;;;;;;19.10;53.90;;;;;;5014317;28;20300;-68
2024/01/25 02:28:07;;;;;;;;;;;19.10;53.80;;;;;;5014874;28;19971;-68
2024/01/25 02:30:33;;;;;;;;;;;19.10;53.90;;;;;;5014628;28;19929;-68
2024/01/25 02:32:58;;;;;;;;;;;19.10;53.80;;;;;;5015233;28;19976;-68
2024/01/25 02:35:24;;;;;;;;;;;19.00;53.80;;;;;;5015497;28;19971;-68
2024/01/25 02:37:50;;;;;;;;;;;19.10;53.90;;;;;;5032046;28;20424;-68
2024/01/25 02:40:16;;;;;;;;;;;19.10;53.90;;;;;;5032562;28;19979;-68
2024/01/25 02:42:41;;;;;;;;;;;19.00;53.80;;;;;;5015064;28;19925;-68
2024/01/25 02:45:07;;;;;;;;;;;19.00;53.80;;;;;;5014085;28;20027;-68
2024/01/25 02:47:32;;;;;;;;;;;19.00;53.80;;;;;;5015369;28;19925;-68
2024/01/25 02:49:58;;;;;;;;;;;19.00;53.80;;;;;;5016158;28;19929;-68
2024/01/25 02:52:23;;;;;;;;;;;19.00;53.80;;;;;;5018266;28;20403;-68
2024/01/25 02:54:49;;;;;;;;;;;19.00;53.80;;;;;;5026869;28;19925;-68
2024/01/25 02:57:15;;;;;;;;;;;19.00;53.80;;;;;;5056157;28;19925;-69
2024/01/25 02:59:40;;;;;;;;;;;19.00;53.80;;;;;;5055765;28;19948;-68
2024/01/25 03:02:06;;;;;;;;;;;19.00;53.80;;;;;;5021943;28;20292;-68
2024/01/25 03:04:31;;;;;;;;;;;19.00;53.90;;;;;;5036049;28;19948;-68
2024/01/25 03:06:57;;;;;;;;;;;19.00;53.80;;;;;;5035165;28;19944;-68
2024/01/25 03:09:23;;;;;;;;;;;19.00;53.80;;;;;;5036119;28;20022;-68
2024/01/25 03:11:49;;;;;;;;;;;19.00;53.90;;;;;;5036171;28;19936;-68
2024/01/25 03:14:14;;;;;;;;;;;19.00;53.80;;;;;;5035488;28;19926;-68
2024/01/25 03:16:40;;;;;;;;;;;18.90;53.80;;;;;;5036375;28;19926;-68
2024/01/25 03:19:05;;;;;;;;;;;18.90;53.80;;;;;;5018092;28;20389;-68
2024/01/25 03:21:31;;;;;;;;;;;18.90;53.80;;;;;;5035143;28;20028;-68
2024/01/25 03:23:56;;;;;;;;;;;18.90;53.80;;;;;;5035553;28;19973;-68
2024/01/25 03:26:22;;;;;;;;;;;18.90;53.80;;;;;;5018509;28;20008;-68
2024/01/25 03:28:47;;;;;;;;;;;18.90;53.80;;;;;;5034877;28;20277;-68
2024/01/25 03:31:13;;;;;;;;;;;18.90;53.80;;;;;;5017818;28;19976;-68
2024/01/25 03:33:38;;;;;;;;;;;19.00;53.90;;;;;;5047066;28;20023;-68
2024/01/25 03:36:04;;;;;;;;;;;18.90;53.80;;;;;;5036900;28;19928;-67
2024/01/25 03:38:29;;;;;;;;;;;18.90;53.80;;;;;;5055733;28;19983;-68
2024/01/25 03:40:56;;;;;;;;;;;19.00;53.80;;;;;;5054413;28;19931;-68
2024/01/25 03:43:23;;;;;;;;;;;19.00;53.80;;;;;;5053689;28;19979;-68
2024/01/25 03:45:49;;;;;;;;;;;19.00;53.90;;;;;;5037721;28;20422;-68
2024/01/25 03:48:14;;;;;;;;;;;19.00;53.80;;;;;;5036204;28;19956;-68
2024/01/25 03:50:40;;;;;;;;;;;18.90;53.80;;;;;;5037561;28;19982;-68
2024/01/25 03:53:06;;;;;;;;;;;19.00;53.80;;;;;;5054885;28;19964;-68
2024/01/25 03:55:32;;;;;;;;;;;19.00;53.80;;;;;;5036972;28;19924;-68
2024/01/25 03:57:57;;;;;;;;;;;19.00;53.80;;;;;;5037152;28;20026;-68
2024/01/25 04:00:23;;;;;;;;;;;19.00;53.80;;;;;;5036708;28;19925;-68
2024/01/25 04:02:48;;;;;;;;;;;19.00;53.70;;;;;;5035775;28;19929;-68
2024/01/25 04:05:14;;;;;;;;;;;19.00;53.70;;;;;;5037252;28;20292;-68
2024/01/25 04:07:39;;;;;;;;;;;19.10;53.70;;;;;;5037047;28;19925;-68
2024/01/25 04:10:05;;;;;;;;;;;19.10;53.70;;;;;;5054049;28;19932;-68
2024/01/25 04:12:32;;;;;;;;;;;19.10;53.70;;;;;;5037378;28;19921;-68
2024/01/25 04:14:58;;;;;;;;;;;19.10;53.70;;;;;;5054803;28;20286;-68
2024/01/25 04:17:23;;;;;;;;;;;19.10;53.70;;;;;;5054143;28;20304;-68
2024/01/25 04:19:49;;;;;;;;;;;19.10;53.70;;;;;;5054742;28;19924;-68
2024/01/25 04:22:14;;;;;;;;;;;19.20;53.70;;;;;;5054667;28;20331;-68
2024/01/25 04:24:40;;;;;;;;;;;19.20;53.70;;;;;;5036355;28;19983;-68
2024/01/25 04:27:05;;;;;;;;;;;19.20;53.70;;;;;;5036590;28;19932;-68
2024/01/25 04:29:31;;;;;;;;;;;19.20;53.70;;;;;;5054651;28;20004;-68
2024/01/25 04:31:56;;;;;;;;;;;19.20;53.70;;;;;;5036038;28;19971;-68
2024/01/25 04:34:22;;;;;;;;;;;19.20;53.70;;;;;;5054528;28;20319;-68
2024/01/25 04:36:47;;;;;;;;;;;19.30;53.70;;;;;;5054447;28;19924;-68
2024/01/25 04:39:13;;;;;;;;;;;19.30;53.70;;;;;;5035508;28;19925;-68
2024/01/25 04:41:38;;;;;;;;;;;19.30;53.70;;;;;;5054436;28;19928;-68
2024/01/25 04:44:04;;;;;;;;;;;19.30;53.70;;;;;;5035404;28;19924;-68
2024/01/25 04:46:35;;;;;;;;;;;19.40;53.70;;;;;;5034276;28;19928;-68
2024/01/25 04:49:00;;;;;;;;;;;19.40;53.70;;;;;;5036425;28;19925;-68
2024/01/25 04:51:26;;;;;;;;;;;19.40;53.70;;;;;;5035827;28;19932;-68
2024/01/25 04:53:51;;;;;;;;;;;19.40;53.60;;;;;;5035911;28;20011;-68
2024/01/25 04:56:17;;;;;;;;;;;19.40;53.60;;;;;;5054304;28;19925;-68
2024/01/25 04:58:42;;;;;;;;;;;19.40;53.60;;;;;;5053442;28;20372;-68
2024/01/25 05:01:08;;;;;;;;;;;19.40;53.60;;;;;;5043507;28;19929;-68
2024/01/25 05:03:33;;;;;;;;;;;19.40;53.60;;;;;;5026263;28;19925;-68
2024/01/25 05:05:59;;;;;;;;;;;19.50;53.60;;;;;;5033086;28;20011;-68
2024/01/25 05:08:24;;;;;;;;;;;19.50;53.60;;;;;;5033528;28;19925;-68
2024/01/25 05:10:50;;;;;;;;;;;19.50;53.60;;;;;;5033732;28;19987;-68
2024/01/25 05:13:15;;;;;;;;;;;19.50;53.60;;;;;;5032074;28;19925;-68
2024/01/25 05:15:41;;;;;;;;;;;19.50;53.60;;;;;;5016487;28;19925;-68
2024/01/25 05:18:06;;;;;;;;;;;19.50;53.60;;;;;;5015696;28;20288;-68
2024/01/25 05:20:32;;;;;;;;;;;19.50;53.50;;;;;;5015396;28;19925;-68
2024/01/25 05:22:58;;;;;;;;;;;19.50;53.50;;;;;;5033786;28;19925;-68
2024/01/25 05:25:25;;;;;;;;;;;19.50;53.50;;;;;;5033957;28;19929;-68
2024/01/25 05:27:51;;;;;;;;;;;19.50;53.50;;;;;;5033018;28;19936;-68
2024/01/25 05:30:17;;;;;;;;;;;19.50;53.50;;;;;;5015796;28;19929;-68
2024/01/25 05:32:43;;;;;;;;;;;19.50;53.50;;;;;;5033476;28;19975;-68
2024/01/25 05:35:09;;;;;;;;;;;19.60;53.50;;;;;;5032622;28;19936;-68
2024/01/25 05:37:34;;;;;;;;;;;19.50;53.40;;;;;;5016097;28;20384;-68
2024/01/25 05:40:00;;;;;;;;;;;19.60;53.50;;;;;;5015374;28;19925;-68
2024/01/25 05:42:25;;;;;;;;;;;19.60;53.50;;;;;;5015423;28;20415;-68
2024/01/25 05:44:51;;;;;;;;;;;19.60;53.50;;;;;;5035364;28;19924;-68
2024/01/25 05:47:16;;;;;;;;;;;19.60;53.50;;;;;;5053247;28;19956;-68
2024/01/25 05:49:42;;;;;;;;;;;19.60;53.50;;;;;;5052689;28;20331;-68
2024/01/25 05:52:07;;;;;;;;;;;19.60;53.50;;;;;;5038137;28;19952;-68
2024/01/25 05:54:33;;;;;;;;;;;19.60;53.50;;;;;;5015097;28;19925;-69
2024/01/25 05:56:58;;;;;;;;;;;19.60;53.50;;;;;;5033356;28;19941;-69
2024/01/25 05:59:24;;;;;;;;;;;19.60;53.40;;;;;;5015905;28;19972;-68
2024/01/25 06:01:49;;;;;;;;;;;19.60;53.40;;;;;;5023803;28;19925;-68
2024/01/25 06:04:15;;;;;;;;;;;19.60;53.40;;;;;;4995900;28;19926;-68
2024/01/25 06:06:40;;;;;;;;;;;19.70;53.50;;;;;;5001560;28;19925;-68
2024/01/25 06:09:06;;;;;;;;;;;19.70;53.40;;;;;;5031143;28;19931;-68
2024/01/25 06:11:33;;;;;;;;;;;19.70;53.40;;;;;;5015692;28;19925;-68
2024/01/25 06:13:58;;;;;;;;;;;19.70;53.40;;;;;;5015032;28;19921;-68
2024/01/25 06:16:24;;;;;;;;;;;19.70;53.40;;;;;;5014432;28;20323;-68
2024/01/25 06:18:49;;;;;;;;;;;19.70;53.40;;;;;;5015584;28;19968;-68
2024/01/25 06:21:15;;;;;;;;;;;19.70;53.40;;;;;;5014965;28;19933;-68
2024/01/25 06:23:40;;;;;;;;;;;19.70;53.40;;;;;;5031900;28;19925;-68
2024/01/25 06:26:06;;;;;;;;;;;19.70;53.40;;;;;;5018350;28;19921;-68
2024/01/25 06:28:31;;;;;;;;;;;19.70;53.30;;;;;;5037044;28;19975;-68
2024/01/25 06:30:57;;;;;;;;;;;19.70;53.30;;;;;;5014824;28;19948;-68
2024/01/25 06:33:22;;;;;;;;;;;19.70;53.30;;;;;;4999456;28;20366;-68
2024/01/25 06:35:48;;;;;;;;;;;19.70;53.30;;;;;;4999559;28;19925;-68
2024/01/25 06:38:13;;;;;;;;;;;19.70;53.30;;;;;;5015853;28;19932;-68
2024/01/25 06:40:39;;;;;;;;;;;19.70;53.30;;;;;;4999168;28;19968;-68
2024/01/25 06:43:04;;;;;;;;;;;19.70;53.30;;;;;;5021681;28;19933;-68
2024/01/25 06:45:30;;;;;;;;;;;19.70;53.30;;;;;;5037938;28;19921;-68
2024/01/25 06:47:55;;;;;;;;;;;19.70;53.30;;;;;;5038461;28;19979;-68
2024/01/25 06:50:21;;;;;;;;;;;19.70;53.30;;;;;;5038786;28;20407;-68
2024/01/25 06:52:47;;;;;;;;;;;19.70;53.30;;;;;;5037387;28;20012;-69
2024/01/25 06:55:12;;;;;;;;;;;19.70;53.30;;;;;;5038541;28;19974;-69
2024/01/25 06:57:38;;;;;;;;;;;19.70;53.30;;;;;;5038149;28;20380;-69
2024/01/25 07:00:04;;;;;;;;;;;19.70;53.30;;;;;;5038242;28;19974;-69
2024/01/25 07:02:30;;;;;;;;;;;19.70;53.30;;;;;;5039026;28;20023;-69
2024/01/25 07:04:56;;;;;;;;;;;19.70;53.30;;;;;;5027483;28;19921;-69
2024/01/25 07:07:21;;;;;;;;;;;19.70;53.30;;;;;;4999160;28;19932;-69
2024/01/25 07:09:47;;;;;;;;;;;19.70;53.30;;;;;;4998894;28;19971;-68
2024/01/25 07:12:12;;;;;;;;;;;19.70;53.30;;;;;;4998159;28;19922;-67
2024/01/25 07:14:37;;;;;;;;;;;19.70;53.30;;;;;;4998778;28;20022;-66
2024/01/25 07:17:03;;;;;;;;;;;19.70;53.30;;;;;;5016343;28;19921;-68
2024/01/25 07:19:29;;;;;;;;;;;19.70;53.30;;;;;;4998367;28;19936;-68
2024/01/25 07:21:55;;;;;;;;;;;19.70;53.40;;;;;;4998129;28;20266;-68
2024/01/25 07:24:20;;;;;;;;;;;19.70;53.40;;;;;;5016174;28;19987;-69
2024/01/25 07:26:46;;;;;;;;;;;19.70;53.50;;;;;;4998072;28;19926;-68
2024/01/25 07:29:11;;;;;;;;;;;19.70;53.50;;;;;;4994793;28;19936;-68
2024/01/25 07:31:37;;;;;;;;;;;19.70;53.50;;;;;;4996733;28;19926;-68
2024/01/25 07:34:02;;;;;;;;;;;19.70;53.50;;;;;;5004895;28;19925;-72
2024/01/25 07:36:28;;;;;;;;;;;19.70;53.80;;;;;;5012993;28;19963;-73
2024/01/25 07:38:54;;;;;;;;;;;19.70;53.90;;;;;;5013805;28;19925;-73
2024/01/25 07:41:19;;;;;;;;;;;19.80;54.10;;;;;;5014755;28;19936;-70
2024/01/25 07:43:45;;;;;;;;;;;19.70;54.10;;;;;;5015410;28;19925;-71
2024/01/25 07:46:10;;;;;;;;;;;19.80;54.30;;;;;;5015210;28;20360;-69
2024/01/25 07:48:36;;;;;;;;;;;19.80;54.40;;;;;;5015050;28;19930;-70
2024/01/25 07:51:01;;;;;;;;;;;19.80;54.50;;;;;;5013946;28;19929;-71
2024/01/25 07:53:27;;;;;;;;;;;19.80;54.50;;;;;;5014663;28;20059;-71
2024/01/25 07:55:52;;;;;;;;;;;19.80;54.50;;;;;;5012263;28;19925;-70
2024/01/25 07:58:18;;;;;;;;;;;19.80;54.60;;;;;;5013609;28;20373;-71
2024/01/25 08:00:45;;;;;;;;;;;19.80;54.60;;;;;;5014035;28;20067;-71
2024/01/25 08:03:10;;;;;;;;;;;19.80;54.50;;;;;;5002922;28;19933;-67
2024/01/25 08:05:36;;;;;;;;;;;19.80;54.60;;;;;;5001394;28;19937;-69
2024/01/25 08:08:01;;;;;;;;;;;19.90;54.70;;;;;;4999027;28;19926;-68
2024/01/25 08:10:27;;;;;;;;;;;19.80;54.60;;;;;;4990061;28;19925;-71
2024/01/25 08:12:53;;;;;;;;;;;19.90;54.60;;;;;;5008426;28;19960;-69
2024/01/25 08:15:19;;;;;;;;;;;19.80;54.50;;;;;;5005826;28;20425;-71
2024/01/25 08:17:44;;;;;;;;;;;19.90;54.70;;;;;;5002507;28;19926;-72
2024/01/25 08:20:10;;;;;;;;;;;19.80;54.80;;;;;;5004532;28;20266;-70
2024/01/25 08:22:36;;;;;;;;;;;19.90;54.80;;;;;;5007124;28;19932;-71
2024/01/25 08:25:01;;;;;;;;;;;19.90;54.90;;;;;;5006917;28;19926;-74
2024/01/25 08:27:27;;;;;;;;;;;19.90;54.90;;;;;;5009758;28;19925;-72
2024/01/25 08:29:52;;;;;;;;;;;19.90;54.90;;;;;;5007399;28;20351;-72
2024/01/25 08:32:18;;;;;;;;;;;19.90;55.00;;;;;;5009479;28;19937;-71
2024/01/25 08:34:43;;;;;;;;;;;19.90;55.00;;;;;;5002050;28;19992;-71
2024/01/25 08:37:09;;;;;;;;;;;20.00;55.00;;;;;;5004968;28;19934;-72
2024/01/25 08:39:34;;;;;;;;;;;20.00;55.10;;;;;;5006277;28;19941;-72
2024/01/25 08:42:06;;;;;;;;;;;20.00;55.10;;;;;;5005114;28;20378;-72
2024/01/25 08:44:31;;;;;;;;;;;20.00;55.10;;;;;;5004352;28;19980;-71
2024/01/25 08:46:57;;;;;;;;;;;20.00;55.10;;;;;;5007396;28;19925;-71
2024/01/25 08:49:22;;;;;;;;;;;20.00;55.00;;;;;;5003494;28;19926;-73
2024/01/25 08:51:48;;;;;;;;;;;20.00;55.00;;;;;;5004459;28;20004;-74
2024/01/25 08:54:14;;;;;;;;;;;20.00;55.00;;;;;;5006979;28;19929;-75
2024/01/25 08:56:39;;;;;;;;;;;20.00;55.10;;;;;;5009417;28;19929;-72
2024/01/25 08:59:05;;;;;;;;;;;20.00;55.10;;;;;;5005671;28;19929;-71
2024/01/25 09:01:30;;;;;;;;;;;20.00;55.10;;;;;;5003887;28;19969;-70
2024/01/25 09:04:00;;;;;;;;;;;20.00;55.00;;;;;;5004920;28;19929;-70
2024/01/25 09:06:26;;;;;;;;;;;20.00;55.10;;;;;;5009015;28;19936;-74
2024/01/25 09:08:51;;;;;;;;;;;20.00;55.10;;;;;;5003982;28;19925;-75
2024/01/25 09:11:17;;;;;;;;;;;20.00;55.10;;;;;;5005075;28;20340;-74
2024/01/25 09:13:45;;;;;;;;;;;20.00;55.10;;;;;;5005530;28;19979;-72
2024/01/25 09:16:10;;;;;;;;;;;20.00;55.10;;;;;;5008451;28;19941;-73
2024/01/25 09:18:36;;;;;;;;;;;20.00;55.10;;;;;;4998148;28;20213;-73
2024/01/25 09:21:01;;;;;;;;;;;20.00;55.10;;;;;;5000022;28;19926;-68
2024/01/25 09:23:27;;;;;;;;;;;20.10;55.10;;;;;;4998857;28;20066;-70
2024/01/25 09:25:52;;;;;;;;;;;20.00;55.00;;;;;;5001405;28;19922;-69
2024/01/25 09:28:17;;;;;;;;;;;20.10;55.10;;;;;;5000413;28;19929;-70
2024/01/25 09:30:43;;;;;;;;;;;20.10;55.10;;;;;;5002912;28;19925;-70
2024/01/25 09:33:09;;;;;;;;;;;20.10;55.10;;;;;;4995151;28;19925;-71
2024/01/25 09:35:34;;;;;;;;;;;20.10;55.20;;;;;;5014039;28;19948;-68
2024/01/25 09:38:00;;;;;;;;;;;20.10;55.20;;;;;;5007951;28;19960;-66
2024/01/25 09:40:25;;;;;;;;;;;20.10;55.10;;;;;;5004800;28;20456;-66
2024/01/25 09:42:52;;;;;;;;;;;20.10;55.00;;;;;;5013312;28;20465;-66
2024/01/25 09:45:18;;;;;;;;;;;20.10;55.00;;;;;;5015701;28;19967;-68
2024/01/25 09:47:47;;;;;;;;;;;20.20;55.10;;;;;;4995755;28;19925;-69
2024/01/25 09:50:14;;;;;;;;;;;20.10;55.00;;;;;;4998336;28;19957;-68
2024/01/25 09:52:39;;;;;;;;;;;20.10;54.90;;;;;;5004425;28;20417;-69
2024/01/25 09:55:06;;;;;;;;;;;20.10;54.80;;;;;;5019971;28;19932;-70
2024/01/25 09:57:32;;;;;;;;;;;20.10;55.00;;;;;;5011437;28;19921;-68
2024/01/25 09:59:57;;;;;;;;;;;20.10;54.90;;;;;;4998014;28;20362;-71
2024/01/25 10:02:23;;;;;;;;;;;20.10;55.00;;;;;;5008892;28;19972;-71
2024/01/25 10:04:49;;;;;;;;;;;20.10;55.30;;;;;;5011029;28;20349;-70
2024/01/25 10:07:15;;;;;;;;;;;20.10;55.50;;;;;;5004813;28;19980;-70
2024/01/25 10:09:41;;;;;;;;;;;20.10;55.50;;;;;;5009970;28;19925;-68
2024/01/25 10:12:06;;;;;;;;;;;20.10;55.50;;;;;;5012109;28;20048;-69
2024/01/25 10:14:32;;;;;;;;;;;20.10;55.50;;;;;;5012744;28;20401;-70
2024/01/25 10:16:57;;;;;;;;;;;20.10;55.90;;;;;;5009468;28;20332;-70
2024/01/25 10:19:23;;;;;;;;;;;20.10;56.00;;;;;;5009906;28;20011;-69
2024/01/25 10:21:49;;;;;;;;;;;20.10;56.10;;;;;;5012153;28;19925;-70
2024/01/25 10:24:14;;;;;;;;;;;20.10;56.10;;;;;;5020306;28;20270;-70
2024/01/25 10:26:40;;;;;;;;;;;20.10;56.20;;;;;;5011537;28;20452;-70
2024/01/25 10:29:06;;;;;;;;;;;20.10;56.20;;;;;;5021272;28;19980;-69
2024/01/25 10:31:32;;;;;;;;;;;20.10;56.30;;;;;;5025374;28;19926;-70
2024/01/25 10:33:57;;;;;;;;;;;20.10;56.30;;;;;;5003207;28;20294;-69
2024/01/25 10:36:23;;;;;;;;;;;20.00;56.30;;;;;;5020400;28;19971;-70
2024/01/25 10:38:49;;;;;;;;;;;20.10;56.30;;;;;;4994559;28;20385;-70
2024/01/25 10:41:15;;;;;;;;;;;20.10;56.40;;;;;;5010603;28;19932;-70
2024/01/25 10:43:40;;;;;;;;;;;20.10;56.30;;;;;;4994243;28;19933;-68
2024/01/25 10:46:06;;;;;;;;;;;20.10;56.30;;;;;;5010209;28;19956;-69
2024/01/25 10:48:31;;;;;;;;;;;20.00;56.30;;;;;;5001442;28;19925;-69
2024/01/25 10:50:59;;;;;;;;;;;20.00;56.30;;;;;;5012389;28;19925;-69
2024/01/25 10:53:24;;;;;;;;;;;20.00;56.40;;;;;;5020767;28;19932;-69
2024/01/25 10:55:50;;;;;;;;;;;20.00;56.30;;;;;;5010169;28;19925;-70
2024/01/25 10:58:15;;;;;;;;;;;20.00;56.40;;;;;;5008592;28;19925;-70
2024/01/25 11:00:41;;;;;;;;;;;20.00;56.40;;;;;;5018782;28;19925;-70
2024/01/25 11:03:07;;;;;;;;;;;20.00;56.40;;;;;;5009995;28;19941;-69
2024/01/25 11:05:32;;;;;;;;;;;20.00;56.40;;;;;;5022232;28;19972;-70
2024/01/25 11:07:58;;;;;;;;;;;20.00;56.40;;;;;;5004430;28;20442;-71
2024/01/25 11:10:24;;;;;;;;;;;20.00;56.40;;;;;;5025657;28;19968;-68
2024/01/25 11:12:57;;;;;;;;;;;20.00;56.40;;;;;;5017944;28;19929;-69
2024/01/25 11:15:25;;;;;;;;;;;20.00;56.30;;;;;;5035301;28;19929;-70
2024/01/25 11:17:52;;;;;;;;;;;19.90;56.10;;;;;;5017625;28;19932;-70
2024/01/25 11:20:19;;;;;;;;;;;20.00;56.20;;;;;;5017008;28;20288;-70
2024/01/25 11:22:45;;;;;;;;;;;19.90;56.10;;;;;;5018154;28;19926;-70
2024/01/25 11:25:12;;;;;;;;;;;20.00;56.20;;;;;;5017054;28;20377;-70
2024/01/25 11:27:38;;;;;;;;;;;20.00;56.30;;;;;;5018442;28;19968;-70
2024/01/25 11:30:04;;;;;;;;;;;19.90;56.10;;;;;;5015668;28;19976;-69
2024/01/25 11:32:30;;;;;;;;;;;19.90;56.10;;;;;;5001308;28;19929;-67
2024/01/25 11:34:59;;;;;;;;;;;19.90;56.10;;;;;;5000831;28;19971;-72
2024/01/25 11:37:24;;;;;;;;;;;19.90;56.10;;;;;;5035766;28;19964;-72
2024/01/25 11:39:50;;;;;;;;;;;19.90;56.10;;;;;;5017620;28;19979;-72
2024/01/25 11:42:15;;;;;;;;;;;19.90;56.10;;;;;;5023497;28;19928;-71
2024/01/25 11:44:41;;;;;;;;;;;19.90;56.10;;;;;;5002088;28;19925;-72
2024/01/25 11:47:07;;;;;;;;;;;19.90;56.10;;;;;;5006463;28;19972;-72
2024/01/25 11:49:34;;;;;;;;;;;19.90;56.20;;;;;;5012318;28;20019;-72
2024/01/25 11:52:02;;;;;;;;;;;19.90;56.10;;;;;;5013315;28;19968;-72
2024/01/25 11:54:27;;;;;;;;;;;19.90;56.20;;;;;;5012099;28;19959;-72
2024/01/25 11:56:53;;;;;;;;;;;19.90;56.10;;;;;;5026090;28;19936;-71
2024/01/25 11:59:18;;;;;;;;;;;19.90;56.10;;;;;;5009129;28;20372;-72
2024/01/25 12:01:44;;;;;;;;;;;19.90;56.10;;;;;;5003970;28;19968;-73
2024/01/25 12:04:09;;;;;;;;;;;19.90;56.30;;;;;;4992369;28;19934;-74
2024/01/25 12:06:35;;;;;;;;;;;19.80;56.10;;;;;;5019848;28;20012;-74
2024/01/25 12:09:10;;;;;;;;;;;19.90;56.10;;;;;;5010387;28;20020;-74
2024/01/25 12:11:35;;;;;;;;;;;19.80;56.00;;;;;;5008009;28;19925;-73
2024/01/25 12:14:01;;;;;;;;;;;19.80;56.00;;;;;;5022919;28;19932;-74
2024/01/25 12:16:26;;;;;;;;;;;19.80;56.00;;;;;;5011333;28;19972;-73
2024/01/25 12:18:52;;;;;;;;;;;19.80;55.90;;;;;;5013464;28;19925;-74
2024/01/25 12:21:17;;;;;;;;;;;19.80;55.90;;;;;;4992833;28;19929;-74
2024/01/25 12:23:43;;;;;;;;;;;19.80;55.90;;;;;;5019644;28;19980;-74
2024/01/25 12:26:09;;;;;;;;;;;19.80;55.90;;;;;;5012854;28;19967;-74
2024/01/25 12:28:35;;;;;;;;;;;19.80;55.80;;;;;;5009101;28;19956;-71
2024/01/25 12:31:01;;;;;;;;;;;19.80;55.90;;;;;;5010281;28;19925;-74
2024/01/25 12:33:26;;;;;;;;;;;19.70;56.10;;;;;;5021165;28;20296;-71
2024/01/25 12:35:53;;;;;;;;;;;19.80;56.20;;;;;;5007962;28;19932;-72
2024/01/25 12:38:19;;;;;;;;;;;19.80;56.30;;;;;;5010214;28;19932;-74
2024/01/25 12:40:46;;;;;;;;;;;19.80;56.30;;;;;;5016826;28;19925;-73
2024/01/25 12:43:11;;;;;;;;;;;19.80;56.70;;;;;;5015810;28;20677;-73
2024/01/25 12:45:36;;;;;;;;;;;19.80;56.00;;;;;;5034442;28;20027;-73
2024/01/25 12:48:02;;;;;;;;;;;19.80;55.90;;;;;;5016789;28;19932;-73
2024/01/25 12:50:28;;;;;;;;;;;19.80;55.80;;;;;;5033983;28;20422;-74
2024/01/25 12:52:53;;;;;;;;;;;19.80;55.80;;;;;;5015301;28;20024;-72
2024/01/25 12:55:19;;;;;;;;;;;19.80;55.80;;;;;;5000609;28;19925;-71
2024/01/25 12:57:44;;;;;;;;;;;19.80;55.80;;;;;;5016235;28;19929;-72
2024/01/25 13:00:10;;;;;;;;;;;19.90;55.80;;;;;;5034171;28;20028;-71
2024/01/25 13:02:35;;;;;;;;;;;19.80;55.70;;;;;;5016432;28;19968;-71
2024/01/25 13:05:01;;;;;;;;;;;19.80;55.70;;;;;;5015799;28;20004;-71
2024/01/25 13:07:26;;;;;;;;;;;19.90;55.70;;;;;;5016934;28;20032;-71
2024/01/25 13:09:52;;;;;;;;;;;19.90;55.70;;;;;;5016340;28;20373;-72
2024/01/25 13:12:17;;;;;;;;;;;19.90;55.60;;;;;;5033313;28;19925;-71
2024/01/25 13:14:43;;;;;;;;;;;19.90;55.70;;;;;;5030658;28;19932;-72
2024/01/25 13:17:09;;;;;;;;;;;19.90;55.60;;;;;;5013964;28;19926;-71
2024/01/25 13:19:34;;;;;;;;;;;19.90;55.60;;;;;;4995846;28;20020;-71
2024/01/25 13:22:00;;;;;;;;;;;19.90;55.60;;;;;;5013730;28;19976;-72
2024/01/25 13:24:25;;;;;;;;;;;19.90;55.60;;;;;;4996544;28;19925;-72
2024/01/25 13:26:51;;;;;;;;;;;19.90;55.60;;;;;;4996049;28;19922;-72
2024/01/25 13:29:16;;;;;;;;;;;19.90;55.50;;;;;;4996187;28;19925;-71
2024/01/25 13:31:42;;;;;;;;;;;19.90;55.50;;;;;;5013191;28;19932;-71
2024/01/25 13:34:07;;;;;;;;;;;20.00;55.60;;;;;;5013448;28;19933;-71
2024/01/25 13:36:33;;;;;;;;;;;20.00;55.60;;;;;;4996804;28;20383;-71
2024/01/25 13:38:58;;;;;;;;;;;20.00;55.50;;;;;;5012900;28;19925;-71
2024/01/25 13:41:24;;;;;;;;;;;20.00;55.50;;;;;;5013901;28;19933;-72
2024/01/25 13:43:49;;;;;;;;;;;20.00;55.50;;;;;;4996171;28;19929;-72
2024/01/25 13:46:15;;;;;;;;;;;20.00;55.50;;;;;;5012718;28;19921;-71
2024/01/25 13:48:40;;;;;;;;;;;20.00;55.40;;;;;;4996062;28;20373;-71
2024/01/25 13:51:06;;;;;;;;;;;20.00;55.40;;;;;;4995809;28;19964;-71
2024/01/25 13:53:31;;;;;;;;;;;20.00;55.40;;;;;;4995311;28;19925;-72
2024/01/25 13:55:57;;;;;;;;;;;20.00;55.40;;;;;;4995633;28;19925;-72
2024/01/25 13:58:22;;;;;;;;;;;20.00;55.40;;;;;;5013871;28;20016;-71
2024/01/25 14:00:48;;;;;;;;;;;20.00;55.40;;;;;;4995333;28;20012;-71
2024/01/25 14:03:14;;;;;;;;;;;20.00;55.30;;;;;;4995733;28;19969;-71
2024/01/25 14:05:40;;;;;;;;;;;20.00;55.30;;;;;;4996185;28;19987;-71
2024/01/25 14:08:05;;;;;;;;;;;20.00;55.30;;;;;;4994820;28;19930;-71